sensor_id;sensor_type;location;lat;lon;timestamp;pressure;altitude;pressure_sealevel;temperature;humidity
15050;BME280;7622;42.724;23.250;2022-07-21T00:01:10;95000.41;;;20.11;100.00
15050;BME280;7622;42.724;23.250;2022-07-21T00:03:37;94999.78;;;19.81;100.00
15050;BME280;7622;42.724;23.250;2022-07-21T00:06:04;94989.88;;;19.55;100.00
15050;BME280;7622;42.724;23.250;2022-07-21T00:08:31;94993.72;;;19.38;100.00
15050;BME280;7622;42.724;23.250;2022-07-21T00:10:58;94993.84;;;19.29;100.00
15050;BME280;7622;42.724;23.250;2022-07-21T00:13:25;94988.97;;;19.26;100.00
15050;BME280;7622;42.724;23.250;2022-07-21T00:15:53;94998.44;;;19.21;100.00
15050;BME280;7622;42.724;23.250;2022-07-21T00:18:21;94998.00;;;18.81;100.00
15050;BME280;7622;42.724;23.250;2022-07-21T00:20:48;94998.53;;;18.92;100.00
15050;BME280;7622;42.724;23.250;2022-07-21T00:23:15;95000.38;;;19.12;100.00
15050;BME280;7622;42.724;23.250;2022-07-21T00:25:42;94991.47;;;19.13;100.00
15050;BME280;7622;42.724;23.250;2022-07-21T00:28:09;94991.09;;;19.16;100.00
15050;BME280;7622;42.724;23.250;2022-07-21T00:30:36;94995.41;;;19.24;100.00
15050;BME280;7622;42.724;23.250;2022-07-21T00:33:04;94989.91;;;19.19;100.00
15050;BME280;7622;42.724;23.250;2022-07-21T00:35:31;94996.63;;;19.00;100.00
15050;BME280;7622;42.724;23.250;2022-07-21T00:37:58;94988.84;;;18.92;100.00
15050;BME280;7622;42.724;23.250;2022-07-21T00:40:25;94993.88;;;19.08;100.00
15050;BME280;7622;42.724;23.250;2022-07-21T00:42:52;94994.41;;;19.04;100.00
15050;BME280;7622;42.724;23.250;2022-07-21T00:45:19;94998.25;;;19.01;100.00
15050;BME280;7622;42.724;23.250;2022-07-21T00:47:46;94996.34;;;19.16;100.00
15050;BME280;7622;42.724;23.250;2022-07-21T00:50:16;94986.56;;;19.10;100.00
15050;BME280;7622;42.724;23.250;2022-07-21T00:52:44;94986.56;;;19.10;100.00
15050;BME280;7622;42.724;23.250;2022-07-21T00:55:13;94992.09;;;19.15;100.00
15050;BME280;7622;42.724;23.250;2022-07-21T00:57:40;94987.09;;;19.20;100.00
15050;BME280;7622;42.724;23.250;2022-07-21T01:00:11;94993.34;;;19.41;100.00
15050;BME280;7622;42.724;23.250;2022-07-21T01:02:39;94991.84;;;19.32;100.00
15050;BME280;7622;42.724;23.250;2022-07-21T01:05:08;94982.44;;;19.22;100.00
15050;BME280;7622;42.724;23.250;2022-07-21T01:07:39;94984.41;;;19.14;100.00
15050;BME280;7622;42.724;23.250;2022-07-21T01:10:07;94986.75;;;19.30;100.00
15050;BME280;7622;42.724;23.250;2022-07-21T01:12:35;94984.59;;;19.12;100.00
15050;BME280;7622;42.724;23.250;2022-07-21T01:15:02;94984.34;;;19.28;100.00
15050;BME280;7622;42.724;23.250;2022-07-21T01:17:29;94976.56;;;19.20;100.00
15050;BME280;7622;42.724;23.250;2022-07-21T01:19:56;94975.41;;;19.29;100.00
15050;BME280;7622;42.724;23.250;2022-07-21T01:22:25;94978.91;;;19.15;100.00
15050;BME280;7622;42.724;23.250;2022-07-21T01:24:51;94975.75;;;19.20;100.00
15050;BME280;7622;42.724;23.250;2022-07-21T01:27:18;94977.31;;;19.36;100.00
15050;BME280;7622;42.724;23.250;2022-07-21T01:29:45;94973.47;;;19.38;100.00
15050;BME280;7622;42.724;23.250;2022-07-21T01:32:12;94974.63;;;19.29;100.00
15050;BME280;7622;42.724;23.250;2022-07-21T01:34:38;94965.38;;;19.40;100.00
15050;BME280;7622;42.724;23.250;2022-07-21T01:37:05;94967.25;;;19.46;100.00
15050;BME280;7622;42.724;23.250;2022-07-21T01:39:33;94961.56;;;19.21;100.00
15050;BME280;7622;42.724;23.250;2022-07-21T01:42:17;94953.97;;;19.33;100.00
15050;BME280;7622;42.724;23.250;2022-07-21T01:44:44;94955.97;;;19.52;100.00
15050;BME280;7622;42.724;23.250;2022-07-21T01:47:11;94970.28;;;19.43;100.00
15050;BME280;7622;42.724;23.250;2022-07-21T01:49:38;94969.81;;;19.39;100.00
15050;BME280;7622;42.724;23.250;2022-07-21T01:52:05;94968.91;;;19.47;100.00
15050;BME280;7622;42.724;23.250;2022-07-21T01:54:34;94967.44;;;19.44;100.00
15050;BME280;7622;42.724;23.250;2022-07-21T01:57:01;94961.63;;;19.27;100.00
15050;BME280;7622;42.724;23.250;2022-07-21T01:59:27;94962.88;;;19.32;100.00
15050;BME280;7622;42.724;23.250;2022-07-21T02:01:54;94961.56;;;19.21;100.00
15050;BME280;7622;42.724;23.250;2022-07-21T02:04:21;94960.88;;;19.12;100.00
15050;BME280;7622;42.724;23.250;2022-07-21T02:06:48;94960.41;;;19.09;100.00
15050;BME280;7622;42.724;23.250;2022-07-21T02:09:15;94966.31;;;19.11;100.00
15050;BME280;7622;42.724;23.250;2022-07-21T02:11:43;94967.25;;;19.03;100.00
15050;BME280;7622;42.724;23.250;2022-07-21T02:14:09;94965.44;;;19.04;100.00
15050;BME280;7622;42.724;23.250;2022-07-21T02:16:36;94966.38;;;19.17;100.00
15050;BME280;7622;42.724;23.250;2022-07-21T02:19:03;94962.63;;;19.05;100.00
15050;BME280;7622;42.724;23.250;2022-07-21T02:21:30;94970.16;;;18.87;100.00
15050;BME280;7622;42.724;23.250;2022-07-21T02:23:57;94962.50;;;18.92;100.00
15050;BME280;7622;42.724;23.250;2022-07-21T02:26:23;94964.88;;;18.87;100.00
15050;BME280;7622;42.724;23.250;2022-07-21T02:28:51;94962.78;;;18.82;100.00
15050;BME280;7622;42.724;23.250;2022-07-21T02:31:18;94958.66;;;18.73;100.00
15050;BME280;7622;42.724;23.250;2022-07-21T02:33:45;94956.13;;;18.65;100.00
15050;BME280;7622;42.724;23.250;2022-07-21T02:36:12;94960.19;;;18.68;100.00
15050;BME280;7622;42.724;23.250;2022-07-21T02:38:39;94958.75;;;18.80;100.00
15050;BME280;7622;42.724;23.250;2022-07-21T02:41:05;94962.97;;;18.81;100.00
15050;BME280;7622;42.724;23.250;2022-07-21T02:43:32;94961.34;;;18.59;100.00
15050;BME280;7622;42.724;23.250;2022-07-21T02:46:00;94964.47;;;18.54;100.00
15050;BME280;7622;42.724;23.250;2022-07-21T02:48:27;94960.66;;;18.71;100.00
15050;BME280;7622;42.724;23.250;2022-07-21T02:50:54;94964.84;;;18.66;100.00
15050;BME280;7622;42.724;23.250;2022-07-21T02:53:21;94964.56;;;18.61;100.00
15050;BME280;7622;42.724;23.250;2022-07-21T02:55:50;94960.94;;;18.62;100.00
15050;BME280;7622;42.724;23.250;2022-07-21T02:58:21;94964.84;;;18.51;100.00
15050;BME280;7622;42.724;23.250;2022-07-21T03:00:50;94958.06;;;18.57;100.00
15050;BME280;7622;42.724;23.250;2022-07-21T03:03:20;94960.13;;;18.61;100.00
15050;BME280;7622;42.724;23.250;2022-07-21T03:05:48;94968.47;;;18.65;100.00
15050;BME280;7622;42.724;23.250;2022-07-21T03:08:15;94960.75;;;18.48;100.00
15050;BME280;7622;42.724;23.250;2022-07-21T03:10:42;94964.78;;;18.44;100.00
15050;BME280;7622;42.724;23.250;2022-07-21T03:13:09;94969.66;;;18.47;100.00
15050;BME280;7622;42.724;23.250;2022-07-21T03:15:36;94971.03;;;18.43;100.00
15050;BME280;7622;42.724;23.250;2022-07-21T03:18:04;94955.69;;;18.47;100.00
15050;BME280;7622;42.724;23.250;2022-07-21T03:20:34;94965.03;;;18.64;100.00
15050;BME280;7622;42.724;23.250;2022-07-21T03:23:01;94961.47;;;18.72;100.00
15050;BME280;7622;42.724;23.250;2022-07-21T03:25:28;94970.56;;;18.91;100.00
15050;BME280;7622;42.724;23.250;2022-07-21T03:27:55;94973.59;;;19.09;100.00
15050;BME280;7622;42.724;23.250;2022-07-21T03:30:23;94967.75;;;18.92;100.00
15050;BME280;7622;42.724;23.250;2022-07-21T03:32:50;94970.91;;;19.02;100.00
15050;BME280;7622;42.724;23.250;2022-07-21T03:35:17;94965.91;;;19.07;100.00
15050;BME280;7622;42.724;23.250;2022-07-21T03:37:47;94969.25;;;19.22;100.00
15050;BME280;7622;42.724;23.250;2022-07-21T03:40:17;94962.28;;;19.08;100.00
15050;BME280;7622;42.724;23.250;2022-07-21T03:42:44;94970.53;;;19.26;100.00
15050;BME280;7622;42.724;23.250;2022-07-21T03:45:12;94976.91;;;19.39;100.00
15050;BME280;7622;42.724;23.250;2022-07-21T03:47:38;94975.75;;;19.62;100.00
15050;BME280;7622;42.724;23.250;2022-07-21T03:50:06;94977.50;;;19.83;100.00
15050;BME280;7622;42.724;23.250;2022-07-21T03:52:33;94976.19;;;20.00;100.00
15050;BME280;7622;42.724;23.250;2022-07-21T03:55:02;94982.69;;;19.98;100.00
15050;BME280;7622;42.724;23.250;2022-07-21T03:57:36;94983.97;;;20.09;100.00
15050;BME280;7622;42.724;23.250;2022-07-21T04:00:06;94993.63;;;20.29;100.00
15050;BME280;7622;42.724;23.250;2022-07-21T04:02:33;94986.78;;;20.35;100.00
15050;BME280;7622;42.724;23.250;2022-07-21T04:05:00;94989.78;;;20.66;100.00
15050;BME280;7622;42.724;23.250;2022-07-21T04:07:28;94993.91;;;20.89;100.00
15050;BME280;7622;42.724;23.250;2022-07-21T04:09:57;94993.16;;;21.01;100.00
15050;BME280;7622;42.724;23.250;2022-07-21T04:12:27;94962.38;;;20.74;100.00
15050;BME280;7622;42.724;23.250;2022-07-21T04:14:55;94989.81;;;20.79;100.00
15050;BME280;7622;42.724;23.250;2022-07-21T04:17:22;94992.50;;;20.93;100.00
15050;BME280;7622;42.724;23.250;2022-07-21T04:19:49;94989.06;;;21.05;100.00
15050;BME280;7622;42.724;23.250;2022-07-21T04:22:16;94996.44;;;21.16;100.00
15050;BME280;7622;42.724;23.250;2022-07-21T04:24:43;94993.44;;;21.52;98.79
15050;BME280;7622;42.724;23.250;2022-07-21T04:27:09;94987.56;;;21.64;98.11
15050;BME280;7622;42.724;23.250;2022-07-21T04:29:37;94988.38;;;21.71;96.85
15050;BME280;7622;42.724;23.250;2022-07-21T04:32:04;94986.94;;;21.61;96.97
15050;BME280;7622;42.724;23.250;2022-07-21T04:34:31;94987.97;;;21.54;96.66
15050;BME280;7622;42.724;23.250;2022-07-21T04:36:58;94984.50;;;21.99;94.33
15050;BME280;7622;42.724;23.250;2022-07-21T04:39:25;94984.28;;;22.08;93.05
15050;BME280;7622;42.724;23.250;2022-07-21T04:41:53;94993.59;;;22.43;87.46
15050;BME280;7622;42.724;23.250;2022-07-21T04:44:19;95000.03;;;22.67;86.33
15050;BME280;7622;42.724;23.250;2022-07-21T04:46:48;94996.78;;;22.65;84.78
15050;BME280;7622;42.724;23.250;2022-07-21T04:49:14;94992.28;;;22.78;82.88
15050;BME280;7622;42.724;23.250;2022-07-21T04:51:41;94994.13;;;22.65;83.77
15050;BME280;7622;42.724;23.250;2022-07-21T04:54:08;94994.81;;;22.34;87.16
15050;BME280;7622;42.724;23.250;2022-07-21T04:56:35;94996.84;;;22.45;87.02
15050;BME280;7622;42.724;23.250;2022-07-21T04:59:02;95001.38;;;22.89;83.06
15050;BME280;7622;42.724;23.250;2022-07-21T05:01:29;95007.06;;;23.31;79.59
15050;BME280;7622;42.724;23.250;2022-07-21T05:03:57;95004.78;;;23.72;75.67
15050;BME280;7622;42.724;23.250;2022-07-21T05:06:24;95005.22;;;23.69;76.26
15050;BME280;7622;42.724;23.250;2022-07-21T05:08:51;95003.50;;;24.06;73.37
15050;BME280;7622;42.724;23.250;2022-07-21T05:11:18;94999.53;;;24.58;70.68
15050;BME280;7622;42.724;23.250;2022-07-21T05:13:44;95001.72;;;25.16;66.83
15050;BME280;7622;42.724;23.250;2022-07-21T05:16:11;94992.13;;;24.79;66.17
15050;BME280;7622;42.724;23.250;2022-07-21T05:18:38;95002.31;;;24.63;67.21
15050;BME280;7622;42.724;23.250;2022-07-21T05:21:07;95006.69;;;25.24;64.78
15050;BME280;7622;42.724;23.250;2022-07-21T05:23:34;94999.06;;;25.99;61.33
15050;BME280;7622;42.724;23.250;2022-07-21T05:26:00;95007.72;;;25.83;60.93
15050;BME280;7622;42.724;23.250;2022-07-21T05:28:27;94999.63;;;25.78;60.98
15050;BME280;7622;42.724;23.250;2022-07-21T05:30:54;95011.31;;;25.88;60.77
15050;BME280;7622;42.724;23.250;2022-07-21T05:33:21;95002.16;;;25.96;60.26
15050;BME280;7622;42.724;23.250;2022-07-21T05:35:48;95009.00;;;26.04;59.88
15050;BME280;7622;42.724;23.250;2022-07-21T05:38:16;95012.47;;;25.93;59.43
15050;BME280;7622;42.724;23.250;2022-07-21T05:40:42;94995.53;;;25.64;57.75
15050;BME280;7622;42.724;23.250;2022-07-21T05:43:09;95015.16;;;26.04;56.75
15050;BME280;7622;42.724;23.250;2022-07-21T05:45:36;95007.16;;;26.16;56.83
15050;BME280;7622;42.724;23.250;2022-07-21T05:48:03;95006.72;;;26.42;55.86
15050;BME280;7622;42.724;23.250;2022-07-21T05:50:30;94996.88;;;26.43;54.89
15050;BME280;7622;42.724;23.250;2022-07-21T05:52:56;95001.00;;;26.74;54.06
15050;BME280;7622;42.724;23.250;2022-07-21T05:55:24;95003.91;;;26.72;53.60
15050;BME280;7622;42.724;23.250;2022-07-21T05:57:51;95010.97;;;26.78;53.58
15050;BME280;7622;42.724;23.250;2022-07-21T06:00:18;95001.31;;;26.89;54.53
15050;BME280;7622;42.724;23.250;2022-07-21T06:02:46;95007.41;;;27.41;53.06
15050;BME280;7622;42.724;23.250;2022-07-21T06:05:13;95001.28;;;27.86;51.89
15050;BME280;7622;42.724;23.250;2022-07-21T06:07:40;95002.41;;;27.56;52.62
15050;BME280;7622;42.724;23.250;2022-07-21T06:10:08;94985.78;;;27.26;54.09
15050;BME280;7622;42.724;23.250;2022-07-21T06:12:36;95000.66;;;27.78;53.30
15050;BME280;7622;42.724;23.250;2022-07-21T06:15:03;94999.03;;;27.77;52.21
15050;BME280;7622;42.724;23.250;2022-07-21T06:17:38;94995.31;;;28.12;51.51
15050;BME280;7622;42.724;23.250;2022-07-21T06:20:06;94998.13;;;27.89;52.01
15050;BME280;7622;42.724;23.250;2022-07-21T06:22:34;94994.59;;;28.33;50.47
15050;BME280;7622;42.724;23.250;2022-07-21T06:25:01;94995.28;;;28.45;50.34
15050;BME280;7622;42.724;23.250;2022-07-21T06:27:27;94989.09;;;28.62;49.71
15050;BME280;7622;42.724;23.250;2022-07-21T06:29:56;94972.91;;;28.51;49.06
15050;BME280;7622;42.724;23.250;2022-07-21T06:32:24;94992.16;;;28.92;48.17
15050;BME280;7622;42.724;23.250;2022-07-21T06:34:51;94994.97;;;29.24;48.26
15050;BME280;7622;42.724;23.250;2022-07-21T06:37:18;94977.31;;;29.82;47.10
15050;BME280;7622;42.724;23.250;2022-07-21T06:39:47;94978.59;;;29.74;46.60
15050;BME280;7622;42.724;23.250;2022-07-21T06:42:13;94986.56;;;29.64;46.35
15050;BME280;7622;42.724;23.250;2022-07-21T06:44:40;94968.88;;;30.27;45.28
15050;BME280;7622;42.724;23.250;2022-07-21T06:47:08;94982.28;;;30.32;45.10
15050;BME280;7622;42.724;23.250;2022-07-21T06:49:35;94974.56;;;29.98;45.76
15050;BME280;7622;42.724;23.250;2022-07-21T06:52:02;94988.97;;;30.29;45.00
15050;BME280;7622;42.724;23.250;2022-07-21T06:54:29;94975.53;;;30.61;45.28
15050;BME280;7622;42.724;23.250;2022-07-21T06:56:55;94979.28;;;30.60;44.62
15050;BME280;7622;42.724;23.250;2022-07-21T06:59:22;94979.75;;;30.52;44.93
15050;BME280;7622;42.724;23.250;2022-07-21T07:01:49;94975.03;;;30.69;44.64
15050;BME280;7622;42.724;23.250;2022-07-21T07:04:17;94976.13;;;30.78;44.93
15050;BME280;7622;42.724;23.250;2022-07-21T07:06:44;94975.84;;;30.70;45.54
15050;BME280;7622;42.724;23.250;2022-07-21T07:09:10;94974.50;;;30.67;45.88
15050;BME280;7622;42.724;23.250;2022-07-21T07:11:37;94966.28;;;30.89;45.14
15050;BME280;7622;42.724;23.250;2022-07-21T07:14:04;94968.91;;;30.79;45.32
15050;BME280;7622;42.724;23.250;2022-07-21T07:16:31;94961.56;;;30.59;45.73
15050;BME280;7622;42.724;23.250;2022-07-21T07:18:58;94969.72;;;30.84;45.03
15050;BME280;7622;42.724;23.250;2022-07-21T07:21:26;94961.66;;;30.84;45.79
15050;BME280;7622;42.724;23.250;2022-07-21T07:23:53;94961.41;;;30.86;45.65
15050;BME280;7622;42.724;23.250;2022-07-21T07:26:20;94963.25;;;30.70;46.75
15050;BME280;7622;42.724;23.250;2022-07-21T07:28:46;94965.63;;;31.29;45.65
15050;BME280;7622;42.724;23.250;2022-07-21T07:31:13;94957.25;;;31.10;46.42
15050;BME280;7622;42.724;23.250;2022-07-21T07:33:40;94955.56;;;30.99;46.29
15050;BME280;7622;42.724;23.250;2022-07-21T07:36:07;94954.50;;;31.00;46.10
15050;BME280;7622;42.724;23.250;2022-07-21T07:38:39;94953.84;;;31.55;45.30
15050;BME280;7622;42.724;23.250;2022-07-21T07:41:06;94951.22;;;31.81;44.77
15050;BME280;7622;42.724;23.250;2022-07-21T07:43:33;94934.50;;;32.09;43.63
15050;BME280;7622;42.724;23.250;2022-07-21T07:45:59;94944.47;;;31.88;43.88
15050;BME280;7622;42.724;23.250;2022-07-21T07:48:27;94945.28;;;32.04;43.90
15050;BME280;7622;42.724;23.250;2022-07-21T07:50:56;94938.31;;;32.18;43.64
15050;BME280;7622;42.724;23.250;2022-07-21T07:53:23;94938.22;;;32.54;43.28
15050;BME280;7622;42.724;23.250;2022-07-21T07:55:51;94935.47;;;32.79;43.06
15050;BME280;7622;42.724;23.250;2022-07-21T07:58:18;94938.72;;;32.76;43.05
15050;BME280;7622;42.724;23.250;2022-07-21T08:00:45;94935.75;;;33.37;40.84
15050;BME280;7622;42.724;23.250;2022-07-21T08:03:11;94935.72;;;33.42;40.25
15050;BME280;7622;42.724;23.250;2022-07-21T08:05:38;94903.97;;;33.34;40.51
15050;BME280;7622;42.724;23.250;2022-07-21T08:08:05;94922.66;;;33.59;39.28
15050;BME280;7622;42.724;23.250;2022-07-21T08:10:32;94931.22;;;33.32;39.46
15050;BME280;7622;42.724;23.250;2022-07-21T08:13:01;94922.63;;;33.64;38.60
15050;BME280;7622;42.724;23.250;2022-07-21T08:15:28;94919.66;;;33.66;38.68
15050;BME280;7622;42.724;23.250;2022-07-21T08:17:54;94915.41;;;33.93;38.42
15050;BME280;7622;42.724;23.250;2022-07-21T08:20:21;94919.69;;;33.60;38.26
15050;BME280;7622;42.724;23.250;2022-07-21T08:22:48;94907.72;;;33.77;37.36
15050;BME280;7622;42.724;23.250;2022-07-21T08:25:16;94920.22;;;33.96;37.47
15050;BME280;7622;42.724;23.250;2022-07-21T08:27:45;94914.22;;;34.05;37.61
15050;BME280;7622;42.724;23.250;2022-07-21T08:30:15;94914.50;;;33.74;37.32
15050;BME280;7622;42.724;23.250;2022-07-21T08:32:42;94914.81;;;33.96;37.44
15050;BME280;7622;42.724;23.250;2022-07-21T08:35:09;94911.44;;;34.44;37.11
15050;BME280;7622;42.724;23.250;2022-07-21T08:37:36;94903.47;;;34.57;37.25
15050;BME280;7622;42.724;23.250;2022-07-21T08:40:04;94911.13;;;34.93;36.61
15050;BME280;7622;42.724;23.250;2022-07-21T08:42:32;94902.38;;;35.01;35.99
15050;BME280;7622;42.724;23.250;2022-07-21T08:44:58;94906.16;;;34.81;35.80
15050;BME280;7622;42.724;23.250;2022-07-21T08:47:27;94896.94;;;35.06;35.91
15050;BME280;7622;42.724;23.250;2022-07-21T08:49:54;94898.66;;;35.39;35.46
15050;BME280;7622;42.724;23.250;2022-07-21T08:52:21;94900.16;;;35.45;35.72
15050;BME280;7622;42.724;23.250;2022-07-21T08:54:48;94899.41;;;35.59;35.39
15050;BME280;7622;42.724;23.250;2022-07-21T08:57:15;94891.22;;;35.64;34.32
15050;BME280;7622;42.724;23.250;2022-07-21T08:59:42;94891.03;;;35.41;34.48
15050;BME280;7622;42.724;23.250;2022-07-21T09:02:25;94886.91;;;35.63;34.81
15050;BME280;7622;42.724;23.250;2022-07-21T09:04:53;94881.50;;;35.63;35.35
15050;BME280;7622;42.724;23.250;2022-07-21T09:07:21;94884.72;;;35.97;34.59
15050;BME280;7622;42.724;23.250;2022-07-21T09:09:55;94879.06;;;36.12;33.61
15050;BME280;7622;42.724;23.250;2022-07-21T09:12:22;94872.56;;;36.13;33.87
15050;BME280;7622;42.724;23.250;2022-07-21T09:14:51;94871.69;;;36.31;34.04
15050;BME280;7622;42.724;23.250;2022-07-21T09:17:20;94869.19;;;36.35;34.10
15050;BME280;7622;42.724;23.250;2022-07-21T09:19:48;94872.41;;;36.23;33.13
15050;BME280;7622;42.724;23.250;2022-07-21T09:22:18;94853.34;;;36.28;32.95
15050;BME280;7622;42.724;23.250;2022-07-21T09:24:49;94864.59;;;36.77;33.52
15050;BME280;7622;42.724;23.250;2022-07-21T09:27:17;94868.00;;;36.68;32.90
15050;BME280;7622;42.724;23.250;2022-07-21T09:29:46;94865.34;;;36.09;33.25
15050;BME280;7622;42.724;23.250;2022-07-21T09:32:18;94868.59;;;36.52;33.26
15050;BME280;7622;42.724;23.250;2022-07-21T09:34:47;94857.66;;;36.29;33.17
15050;BME280;7622;42.724;23.250;2022-07-21T09:37:15;94854.63;;;36.45;32.88
15050;BME280;7622;42.724;23.250;2022-07-21T09:39:48;94863.69;;;36.81;32.96
15050;BME280;7622;42.724;23.250;2022-07-21T09:42:18;94860.38;;;36.57;31.84
15050;BME280;7622;42.724;23.250;2022-07-21T09:44:46;94856.84;;;35.50;32.61
15050;BME280;7622;42.724;23.250;2022-07-21T09:47:16;94857.22;;;35.76;32.82
15050;BME280;7622;42.724;23.250;2022-07-21T09:49:43;94858.38;;;36.21;32.82
15050;BME280;7622;42.724;23.250;2022-07-21T09:52:30;94851.09;;;36.17;32.26
15050;BME280;7622;42.724;23.250;2022-07-21T09:55:00;94853.13;;;36.52;32.34
15050;BME280;7622;42.724;23.250;2022-07-21T09:57:28;94853.13;;;36.52;32.62
15050;BME280;7622;42.724;23.250;2022-07-21T09:59:55;94849.03;;;36.27;32.47
15050;BME280;7622;42.724;23.250;2022-07-21T10:02:24;94844.28;;;36.06;32.17
15050;BME280;7622;42.724;23.250;2022-07-21T10:04:56;94846.53;;;36.45;31.77
15050;BME280;7622;42.724;23.250;2022-07-21T10:07:23;94849.50;;;36.98;31.00
15050;BME280;7622;42.724;23.250;2022-07-21T10:09:50;94849.75;;;37.24;31.15
15050;BME280;7622;42.724;23.250;2022-07-21T10:12:19;94848.34;;;36.63;31.10
15050;BME280;7622;42.724;23.250;2022-07-21T10:14:46;94848.41;;;37.13;31.24
15050;BME280;7622;42.724;23.250;2022-07-21T10:17:14;94849.03;;;36.82;31.19
15050;BME280;7622;42.724;23.250;2022-07-21T10:20:01;94844.31;;;36.74;31.88
15050;BME280;7622;42.724;23.250;2022-07-21T10:22:36;94839.66;;;37.38;31.18
15050;BME280;7622;42.724;23.250;2022-07-21T10:25:07;94837.44;;;37.04;31.17
15050;BME280;7622;42.724;23.250;2022-07-21T10:27:35;94814.34;;;36.57;31.56
15050;BME280;7622;42.724;23.250;2022-07-21T10:30:03;94835.88;;;36.89;31.41
15050;BME280;7622;42.724;23.250;2022-07-21T10:32:33;94835.91;;;36.48;31.32
15050;BME280;7622;42.724;23.250;2022-07-21T10:35:04;94833.09;;;36.40;31.73
15050;BME280;7622;42.724;23.250;2022-07-21T10:37:48;94823.59;;;36.42;31.04
15050;BME280;7622;42.724;23.250;2022-07-21T10:40:38;94813.91;;;35.95;31.89
15050;BME280;7622;42.724;23.250;2022-07-21T10:43:41;94823.88;;;36.27;31.84
15050;BME280;7622;42.724;23.250;2022-07-21T10:46:35;94821.03;;;36.05;31.82
15050;BME280;7622;42.724;23.250;2022-07-21T10:49:03;94821.84;;;36.46;31.60
15050;BME280;7622;42.724;23.250;2022-07-21T10:51:33;94818.16;;;36.28;30.81
15050;BME280;7622;42.724;23.250;2022-07-21T10:54:21;94806.66;;;36.37;31.49
15050;BME280;7622;42.724;23.250;2022-07-21T10:56:48;94810.44;;;36.36;31.99
15050;BME280;7622;42.724;23.250;2022-07-21T10:59:16;94808.31;;;36.60;31.24
15050;BME280;7622;42.724;23.250;2022-07-21T11:01:43;94801.38;;;35.85;31.73
15050;BME280;7622;42.724;23.250;2022-07-21T11:04:11;94794.09;;;35.16;31.87
15050;BME280;7622;42.724;23.250;2022-07-21T11:06:39;94799.38;;;35.91;31.54
15050;BME280;7622;42.724;23.250;2022-07-21T11:09:12;94801.94;;;36.28;31.91
15050;BME280;7622;42.724;23.250;2022-07-21T11:11:56;94799.59;;;36.08;31.72
15050;BME280;7622;42.724;23.250;2022-07-21T11:14:36;94794.22;;;36.36;31.41
15050;BME280;7622;42.724;23.250;2022-07-21T11:17:03;94800.50;;;36.17;31.71
15050;BME280;7622;42.724;23.250;2022-07-21T11:19:32;94798.50;;;36.64;31.08
15050;BME280;7622;42.724;23.250;2022-07-21T11:22:03;94796.63;;;36.37;30.84
15050;BME280;7622;42.724;23.250;2022-07-21T11:24:30;94778.75;;;35.95;31.60
15050;BME280;7622;42.724;23.250;2022-07-21T11:26:59;94786.69;;;36.33;31.75
15050;BME280;7622;42.724;23.250;2022-07-21T11:29:27;94791.47;;;36.08;31.86
15050;BME280;7622;42.724;23.250;2022-07-21T11:31:57;94790.47;;;35.58;31.78
15050;BME280;7622;42.724;23.250;2022-07-21T11:34:39;94787.84;;;35.85;31.19
15050;BME280;7622;42.724;23.250;2022-07-21T11:37:06;94789.09;;;35.61;31.73
15050;BME280;7622;42.724;23.250;2022-07-21T11:39:34;94778.47;;;36.24;31.26
15050;BME280;7622;42.724;23.250;2022-07-21T11:42:03;94779.97;;;36.03;31.99
15050;BME280;7622;42.724;23.250;2022-07-21T11:44:30;94775.66;;;35.69;32.20
15050;BME280;7622;42.724;23.250;2022-07-21T11:46:59;94771.50;;;35.77;32.02
15050;BME280;7622;42.724;23.250;2022-07-21T11:49:27;94768.31;;;35.75;31.97
15050;BME280;7622;42.724;23.250;2022-07-21T11:51:55;94768.84;;;35.58;31.68
15050;BME280;7622;42.724;23.250;2022-07-21T11:54:26;94772.50;;;35.16;32.92
15050;BME280;7622;42.724;23.250;2022-07-21T11:56:54;94755.28;;;34.93;32.92
15050;BME280;7622;42.724;23.250;2022-07-21T11:59:23;94773.00;;;34.62;33.22
15050;BME280;7622;42.724;23.250;2022-07-21T12:01:51;94772.31;;;34.75;33.61
15050;BME280;7622;42.724;23.250;2022-07-21T12:04:31;94771.03;;;34.67;33.62
15050;BME280;7622;42.724;23.250;2022-07-21T12:06:59;94765.97;;;34.85;33.95
15050;BME280;7622;42.724;23.250;2022-07-21T12:09:26;94773.44;;;35.06;33.26
15050;BME280;7622;42.724;23.250;2022-07-21T12:11:53;94762.25;;;34.38;34.13
15050;BME280;7622;42.724;23.250;2022-07-21T12:14:20;94746.31;;;34.18;34.22
15050;BME280;7622;42.724;23.250;2022-07-21T12:17:04;94756.13;;;34.09;34.24
15050;BME280;7622;42.724;23.250;2022-07-21T12:19:32;94756.97;;;34.04;35.39
15050;BME280;7622;42.724;23.250;2022-07-21T12:21:59;94754.84;;;34.30;34.21
15050;BME280;7622;42.724;23.250;2022-07-21T12:24:47;94750.16;;;34.54;34.94
15050;BME280;7622;42.724;23.250;2022-07-21T12:27:16;94750.22;;;34.30;35.06
15050;BME280;7622;42.724;23.250;2022-07-21T12:29:43;94741.97;;;34.22;34.73
15050;BME280;7622;42.724;23.250;2022-07-21T12:32:11;94740.03;;;34.65;34.55
15050;BME280;7622;42.724;23.250;2022-07-21T12:34:49;94738.94;;;34.47;35.29
15050;BME280;7622;42.724;23.250;2022-07-21T12:37:16;94733.66;;;34.37;34.95
15050;BME280;7622;42.724;23.250;2022-07-21T12:39:43;94743.72;;;34.74;34.61
15050;BME280;7622;42.724;23.250;2022-07-21T12:42:29;94735.16;;;34.86;34.53
15050;BME280;7622;42.724;23.250;2022-07-21T12:44:57;94731.34;;;35.05;33.78
15050;BME280;7622;42.724;23.250;2022-07-21T12:47:24;94732.59;;;34.94;34.34
15050;BME280;7622;42.724;23.250;2022-07-21T12:49:58;94730.44;;;34.78;34.59
15050;BME280;7622;42.724;23.250;2022-07-21T12:52:26;94728.38;;;34.69;34.44
15050;BME280;7622;42.724;23.250;2022-07-21T12:54:54;94727.41;;;34.23;34.89
15050;BME280;7622;42.724;23.250;2022-07-21T12:57:21;94718.72;;;34.26;35.14
15050;BME280;7622;42.724;23.250;2022-07-21T12:59:47;94725.94;;;34.30;34.80
15050;BME280;7622;42.724;23.250;2022-07-21T13:02:14;94715.00;;;34.22;35.26
15050;BME280;7622;42.724;23.250;2022-07-21T13:04:41;94718.50;;;34.41;34.67